sensor_id;sensor_type;location;lat;lon;timestamp;pressure;altitude;pressure_sealevel;temperature;humidity
72285;BME280;60220;53.552;10.092;2023-05-25T00:01:41;102222.88;;;13.58;68.60
72285;BME280;60220;53.552;10.092;2023-05-25T00:04:09;102219.38;;;13.53;69.01
72285;BME280;60220;53.552;10.092;2023-05-25T00:06:35;102218.50;;;13.46;69.12
72285;BME280;60220;53.552;10.092;2023-05-25T00:09:06;102224.66;;;13.44;69.23
72285;BME280;60220;53.552;10.092;2023-05-25T00:11:33;102220.25;;;13.43;69.54
72285;BME280;60220;53.552;10.092;2023-05-25T00:14:01;102220.25;;;13.36;69.40
72285;BME280;60220;53.552;10.092;2023-05-25T00:16:27;102216.72;;;13.09;70.11
72285;BME280;60220;53.552;10.092;2023-05-25T00:18:54;102228.16;;;13.15;70.46
72285;BME280;60220;53.552;10.092;2023-05-25T00:21:23;102230.78;;;12.85;71.13
72285;BME280;60220;53.552;10.092;2023-05-25T00:23:54;102238.69;;;12.94;70.61
72285;BME280;60220;53.552;10.092;2023-05-25T00:26:23;102240.47;;;13.16;70.24
72285;BME280;60220;53.552;10.092;2023-05-25T00:28:50;102235.22;;;13.22;70.67
72285;BME280;60220;53.552;10.092;2023-05-25T00:31:20;102235.13;;;12.59;71.93
72285;BME280;60220;53.552;10.092;2023-05-25T00:33:48;102236.03;;;12.83;72.16
72285;BME280;60220;53.552;10.092;2023-05-25T00:36:15;102227.31;;;13.50;69.63
72285;BME280;60220;53.552;10.092;2023-05-25T00:38:42;102237.84;;;13.28;70.34
72285;BME280;60220;53.552;10.092;2023-05-25T00:41:08;102233.41;;;12.97;72.17
72285;BME280;60220;53.552;10.092;2023-05-25T00:43:35;102234.31;;;12.94;71.90
72285;BME280;60220;53.552;10.092;2023-05-25T00:46:05;102226.41;;;13.31;70.68
72285;BME280;60220;53.552;10.092;2023-05-25T00:48:33;102226.38;;;12.87;71.68
72285;BME280;60220;53.552;10.092;2023-05-25T00:51:00;102226.38;;;12.87;72.80
72285;BME280;60220;53.552;10.092;2023-05-25T00:53:28;102222.91;;;13.33;70.75
72285;BME280;60220;53.552;10.092;2023-05-25T00:56:01;102226.38;;;13.05;71.18
72285;BME280;60220;53.552;10.092;2023-05-25T00:58:32;102236.09;;;13.44;71.55
72285;BME280;60220;53.552;10.092;2023-05-25T01:01:00;102229.06;;;13.34;70.32
72285;BME280;60220;53.552;10.092;2023-05-25T01:03:35;102229.06;;;13.34;70.41
72285;BME280;60220;53.552;10.092;2023-05-25T01:06:03;102222.91;;;13.40;70.47
72285;BME280;60220;53.552;10.092;2023-05-25T01:08:36;102221.16;;;13.29;71.18
72285;BME280;60220;53.552;10.092;2023-05-25T01:11:07;102222.84;;;12.64;72.29
72285;BME280;60220;53.552;10.092;2023-05-25T01:13:37;102221.13;;;13.20;72.57
72285;BME280;60220;53.552;10.092;2023-05-25T01:16:05;102212.34;;;13.09;72.31
72285;BME280;60220;53.552;10.092;2023-05-25T01:18:31;102222.91;;;13.27;71.27
72285;BME280;60220;53.552;10.092;2023-05-25T01:21:05;102220.22;;;13.56;70.85
72285;BME280;60220;53.552;10.092;2023-05-25T01:23:41;102227.28;;;13.04;71.36
72285;BME280;60220;53.552;10.092;2023-05-25T01:26:12;102227.28;;;13.21;70.91
72285;BME280;60220;53.552;10.092;2023-05-25T01:28:42;102232.56;;;13.00;71.97
72285;BME280;60220;53.552;10.092;2023-05-25T01:31:12;102240.44;;;13.06;72.34
72285;BME280;60220;53.552;10.092;2023-05-25T01:33:41;102239.56;;;12.88;73.16
72285;BME280;60220;53.552;10.092;2023-05-25T01:36:09;102232.59;;;13.13;72.41
72285;BME280;60220;53.552;10.092;2023-05-25T01:38:36;102236.97;;;13.17;72.00
72285;BME280;60220;53.552;10.092;2023-05-25T01:41:03;102238.69;;;12.83;73.51
72285;BME280;60220;53.552;10.092;2023-05-25T01:43:29;102237.81;;;12.84;73.32
72285;BME280;60220;53.552;10.092;2023-05-25T01:46:01;102239.56;;;12.90;73.01
72285;BME280;60220;53.552;10.092;2023-05-25T01:48:38;102234.25;;;12.67;73.72
72285;BME280;60220;53.552;10.092;2023-05-25T01:51:13;102224.69;;;13.15;74.03
72285;BME280;60220;53.552;10.092;2023-05-25T01:53:50;102229.88;;;12.86;72.81
72285;BME280;60220;53.552;10.092;2023-05-25T01:56:18;102230.75;;;12.82;74.22
72285;BME280;60220;53.552;10.092;2023-05-25T01:58:49;102224.63;;;12.89;73.67
72285;BME280;60220;53.552;10.092;2023-05-25T02:01:17;102223.72;;;12.64;73.88
72285;BME280;60220;53.552;10.092;2023-05-25T02:03:48;102221.13;;;12.98;72.75
72285;BME280;60220;53.552;10.092;2023-05-25T02:06:18;102230.75;;;12.80;73.65
72285;BME280;60220;53.552;10.092;2023-05-25T02:08:47;102233.41;;;12.88;72.94
72285;BME280;60220;53.552;10.092;2023-05-25T02:11:16;102230.75;;;12.73;73.32
72285;BME280;60220;53.552;10.092;2023-05-25T02:13:43;102226.38;;;12.93;73.33
72285;BME280;60220;53.552;10.092;2023-05-25T02:16:10;102226.41;;;12.99;72.91
72285;BME280;60220;53.552;10.092;2023-05-25T02:18:39;102230.78;;;12.85;74.13
72285;BME280;60220;53.552;10.092;2023-05-25T02:21:08;102225.50;;;12.86;72.91
72285;BME280;60220;53.552;10.092;2023-05-25T02:23:39;102233.38;;;12.68;73.17
72285;BME280;60220;53.552;10.092;2023-05-25T02:26:08;102229.00;;;12.84;72.79
72285;BME280;60220;53.552;10.092;2023-05-25T02:28:34;102224.63;;;12.98;73.58
72285;BME280;60220;53.552;10.092;2023-05-25T02:31:01;102229.88;;;12.92;73.98
72285;BME280;60220;53.552;10.092;2023-05-25T02:33:28;102240.38;;;12.62;73.50
72285;BME280;60220;53.552;10.092;2023-05-25T02:35:54;102240.44;;;12.83;73.58
72285;BME280;60220;53.552;10.092;2023-05-25T02:38:21;102237.81;;;12.80;72.04
72285;BME280;60220;53.552;10.092;2023-05-25T02:40:51;102237.78;;;12.74;73.08
72285;BME280;60220;53.552;10.092;2023-05-25T02:43:18;102236.03;;;12.70;73.85
72285;BME280;60220;53.552;10.092;2023-05-25T02:45:45;102229.91;;;13.07;73.35
72285;BME280;60220;53.552;10.092;2023-05-25T02:48:11;102236.81;;;12.50;74.05
72285;BME280;60220;53.552;10.092;2023-05-25T02:50:38;102233.31;;;12.42;74.67
72285;BME280;60220;53.552;10.092;2023-05-25T02:53:07;102235.13;;;12.71;74.16
72285;BME280;60220;53.552;10.092;2023-05-25T02:55:34;102228.06;;;12.51;74.83
72285;BME280;60220;53.552;10.092;2023-05-25T02:58:03;102235.16;;;12.86;73.39
72285;BME280;60220;53.552;10.092;2023-05-25T03:00:32;102236.00;;;12.73;74.54
72285;BME280;60220;53.552;10.092;2023-05-25T03:02:59;102235.16;;;12.74;73.93
72285;BME280;60220;53.552;10.092;2023-05-25T03:05:25;102241.19;;;12.35;74.42
72285;BME280;60220;53.552;10.092;2023-05-25T03:07:52;102241.13;;;12.26;75.61
72285;BME280;60220;53.552;10.092;2023-05-25T03:10:19;102249.09;;;12.39;75.90
72285;BME280;60220;53.552;10.092;2023-05-25T03:12:46;102251.84;;;12.86;74.31
72285;BME280;60220;53.552;10.092;2023-05-25T03:15:14;102252.63;;;12.44;74.98
72285;BME280;60220;53.552;10.092;2023-05-25T03:17:41;102254.50;;;12.88;74.49
72285;BME280;60220;53.552;10.092;2023-05-25T03:20:10;102265.91;;;12.87;74.17
72285;BME280;60220;53.552;10.092;2023-05-25T03:22:41;102257.88;;;12.38;75.11
72285;BME280;60220;53.552;10.092;2023-05-25T03:25:08;102264.16;;;12.89;74.57
72285;BME280;60220;53.552;10.092;2023-05-25T03:27:39;102261.44;;;12.62;74.92
72285;BME280;60220;53.552;10.092;2023-05-25T03:30:07;102263.28;;;12.90;74.06
72285;BME280;60220;53.552;10.092;2023-05-25T03:32:35;102270.28;;;12.73;74.94
72285;BME280;60220;53.552;10.092;2023-05-25T03:35:04;102270.31;;;12.85;74.06
72285;BME280;60220;53.552;10.092;2023-05-25T03:37:31;102271.28;;;13.29;73.20
72285;BME280;60220;53.552;10.092;2023-05-25T03:39:58;102273.78;;;12.72;74.53
72285;BME280;60220;53.552;10.092;2023-05-25T03:42:27;102273.75;;;12.63;74.68
72285;BME280;60220;53.552;10.092;2023-05-25T03:44:53;102268.47;;;12.57;75.08
72285;BME280;60220;53.552;10.092;2023-05-25T03:47:20;102273.75;;;12.66;74.88
72285;BME280;60220;53.552;10.092;2023-05-25T03:49:48;102271.09;;;12.49;74.48
72285;BME280;60220;53.552;10.092;2023-05-25T03:52:15;102277.06;;;12.10;75.99
72285;BME280;60220;53.552;10.092;2023-05-25T03:54:44;102279.81;;;12.42;75.07
72285;BME280;60220;53.552;10.092;2023-05-25T03:57:13;102278.97;;;12.47;75.15
72285;BME280;60220;53.552;10.092;2023-05-25T03:59:42;102293.03;;;12.52;74.60
72285;BME280;60220;53.552;10.092;2023-05-25T04:02:09;102296.44;;;12.24;75.91
72285;BME280;60220;53.552;10.092;2023-05-25T04:04:36;102294.50;;;11.90;76.45
72285;BME280;60220;53.552;10.092;2023-05-25T04:07:07;102302.34;;;11.84;76.79
72285;BME280;60220;53.552;10.092;2023-05-25T04:09:36;102299.03;;;12.21;75.71
72285;BME280;60220;53.552;10.092;2023-05-25T04:12:03;102315.59;;;12.02;75.59
72285;BME280;60220;53.552;10.092;2023-05-25T04:14:30;102311.41;;;12.37;76.02
72285;BME280;60220;53.552;10.092;2023-05-25T04:16:56;102308.66;;;12.16;75.92
72285;BME280;60220;53.552;10.092;2023-05-25T04:19:23;102311.31;;;12.18;75.52
72285;BME280;60220;53.552;10.092;2023-05-25T04:21:50;102310.41;;;12.14;75.44
72285;BME280;60220;53.552;10.092;2023-05-25T04:24:20;102308.66;;;12.10;75.60
72285;BME280;60220;53.552;10.092;2023-05-25T04:26:49;102309.47;;;12.00;76.04
72285;BME280;60220;53.552;10.092;2023-05-25T04:29:16;102316.38;;;11.86;75.90
72285;BME280;60220;53.552;10.092;2023-05-25T04:31:43;102305.88;;;11.92;76.61
72285;BME280;60220;53.552;10.092;2023-05-25T04:34:10;102311.91;;;11.73;76.96
72285;BME280;60220;53.552;10.092;2023-05-25T04:36:38;102314.00;;;12.28;75.56
72285;BME280;60220;53.552;10.092;2023-05-25T04:39:07;102314.06;;;12.43;74.10
72285;BME280;60220;53.552;10.092;2023-05-25T04:41:35;102319.31;;;12.34;73.58
72285;BME280;60220;53.552;10.092;2023-05-25T04:44:02;102321.19;;;12.69;73.57
72285;BME280;60220;53.552;10.092;2023-05-25T04:46:29;102316.81;;;12.69;74.08
72285;BME280;60220;53.552;10.092;2023-05-25T04:48:57;102317.69;;;12.70;73.52
72285;BME280;60220;53.552;10.092;2023-05-25T04:51:25;102322.06;;;12.71;72.66
72285;BME280;60220;53.552;10.092;2023-05-25T04:53:52;102319.38;;;12.56;72.81
72285;BME280;60220;53.552;10.092;2023-05-25T04:56:19;102325.59;;;12.73;72.84
72285;BME280;60220;53.552;10.092;2023-05-25T04:58:51;102320.22;;;12.45;72.35
72285;BME280;60220;53.552;10.092;2023-05-25T05:01:18;102331.75;;;12.72;73.41
72285;BME280;60220;53.552;10.092;2023-05-25T05:03:45;102331.81;;;12.90;71.42
72285;BME280;60220;53.552;10.092;2023-05-25T05:06:12;102323.88;;;12.91;70.70
72285;BME280;60220;53.552;10.092;2023-05-25T05:08:40;102333.59;;;13.08;70.70
72285;BME280;60220;53.552;10.092;2023-05-25T05:11:08;102322.25;;;13.36;69.55
72285;BME280;60220;53.552;10.092;2023-05-25T05:13:34;102326.59;;;13.11;71.05
72285;BME280;60220;53.552;10.092;2023-05-25T05:16:03;102333.66;;;13.46;69.69
72285;BME280;60220;53.552;10.092;2023-05-25T05:18:30;102327.50;;;13.36;69.55
72285;BME280;60220;53.552;10.092;2023-05-25T05:20:56;102339.84;;;13.45;69.14
72285;BME280;60220;53.552;10.092;2023-05-25T05:23:24;102328.41;;;13.79;68.80
72285;BME280;60220;53.552;10.092;2023-05-25T05:25:51;102338.94;;;13.46;68.55
72285;BME280;60220;53.552;10.092;2023-05-25T05:28:17;102333.66;;;13.82;69.13
72285;BME280;60220;53.552;10.092;2023-05-25T05:30:44;102335.34;;;14.38;66.55
72285;BME280;60220;53.552;10.092;2023-05-25T05:33:13;102332.66;;;14.45;65.63
72285;BME280;60220;53.552;10.092;2023-05-25T05:35:39;102337.06;;;14.45;66.61
72285;BME280;60220;53.552;10.092;2023-05-25T05:38:08;102343.34;;;13.56;68.04
72285;BME280;60220;53.552;10.092;2023-05-25T05:40:36;102332.75;;;14.07;66.32
72285;BME280;60220;53.552;10.092;2023-05-25T05:43:03;102331.81;;;14.30;66.34
72285;BME280;60220;53.552;10.092;2023-05-25T05:45:33;102335.41;;;14.04;66.97
72285;BME280;60220;53.552;10.092;2023-05-25T05:47:59;102350.41;;;13.60;66.93
72285;BME280;60220;53.552;10.092;2023-05-25T05:50:30;102342.47;;;13.84;66.68
72285;BME280;60220;53.552;10.092;2023-05-25T05:52:56;102349.47;;;14.14;66.19
72285;BME280;60220;53.552;10.092;2023-05-25T05:55:25;102343.31;;;14.13;64.99
72285;BME280;60220;53.552;10.092;2023-05-25T05:57:52;102345.94;;;14.16;65.11
72285;BME280;60220;53.552;10.092;2023-05-25T06:00:21;102352.97;;;14.16;64.71
72285;BME280;60220;53.552;10.092;2023-05-25T06:02:48;102348.59;;;14.00;64.90
72285;BME280;60220;53.552;10.092;2023-05-25T06:05:14;102340.63;;;14.44;63.62
72285;BME280;60220;53.552;10.092;2023-05-25T06:07:43;102342.34;;;14.51;62.77
72285;BME280;60220;53.552;10.092;2023-05-25T06:10:09;102345.78;;;14.74;62.24
72285;BME280;60220;53.552;10.092;2023-05-25T06:12:39;102352.84;;;14.66;62.37
72285;BME280;60220;53.552;10.092;2023-05-25T06:15:06;102349.31;;;14.67;63.21
72285;BME280;60220;53.552;10.092;2023-05-25T06:17:33;102349.97;;;15.12;61.52
72285;BME280;60220;53.552;10.092;2023-05-25T06:20:01;102355.44;;;14.81;60.72
72285;BME280;60220;53.552;10.092;2023-05-25T06:22:28;102355.59;;;14.42;63.23
72285;BME280;60220;53.552;10.092;2023-05-25T06:24:58;102356.41;;;14.59;63.01
72285;BME280;60220;53.552;10.092;2023-05-25T06:27:26;102366.84;;;14.86;61.79
72285;BME280;60220;53.552;10.092;2023-05-25T06:29:55;102360.69;;;14.89;62.00
72285;BME280;60220;53.552;10.092;2023-05-25T06:32:24;102356.84;;;15.35;60.03
72285;BME280;60220;53.552;10.092;2023-05-25T06:34:53;102359.34;;;15.61;59.23
72285;BME280;60220;53.552;10.092;2023-05-25T06:37:20;102360.16;;;15.69;59.03
72285;BME280;60220;53.552;10.092;2023-05-25T06:39:46;102361.97;;;15.66;57.69
72285;BME280;60220;53.552;10.092;2023-05-25T06:42:14;102365.34;;;15.83;57.37
72285;BME280;60220;53.552;10.092;2023-05-25T06:44:43;102367.34;;;15.50;58.99
72285;BME280;60220;53.552;10.092;2023-05-25T06:47:10;102362.56;;;15.97;57.44
72285;BME280;60220;53.552;10.092;2023-05-25T06:49:39;102367.72;;;16.12;55.77
72285;BME280;60220;53.552;10.092;2023-05-25T06:52:05;102379.22;;;16.11;56.16
72285;BME280;60220;53.552;10.092;2023-05-25T06:54:32;102378.84;;;15.51;57.83
72285;BME280;60220;53.552;10.092;2023-05-25T06:56:59;102371.03;;;15.25;58.18
72285;BME280;60220;53.552;10.092;2023-05-25T06:59:27;102374.44;;;15.52;57.87
72285;BME280;60220;53.552;10.092;2023-05-25T07:01:56;102372.94;;;16.19;55.98
72285;BME280;60220;53.552;10.092;2023-05-25T07:04:23;102378.72;;;16.58;56.30
72285;BME280;60220;53.552;10.092;2023-05-25T07:06:50;102371.50;;;16.72;54.16
72285;BME280;60220;53.552;10.092;2023-05-25T07:09:20;102380.19;;;16.83;55.08
72285;BME280;60220;53.552;10.092;2023-05-25T07:11:46;102385.50;;;17.44;52.42
72285;BME280;60220;53.552;10.092;2023-05-25T07:14:13;102377.63;;;18.42;50.34
72285;BME280;60220;53.552;10.092;2023-05-25T07:16:43;102376.53;;;18.53;48.24
72285;BME280;60220;53.552;10.092;2023-05-25T07:19:12;102383.25;;;18.26;49.35
72285;BME280;60220;53.552;10.092;2023-05-25T07:21:39;102373.56;;;18.69;47.78
72285;BME280;60220;53.552;10.092;2023-05-25T07:24:06;102365.63;;;18.22;47.99
72285;BME280;60220;53.552;10.092;2023-05-25T07:26:33;102377.34;;;17.58;48.80
72285;BME280;60220;53.552;10.092;2023-05-25T07:29:00;102382.19;;;17.30;49.75
72285;BME280;60220;53.552;10.092;2023-05-25T07:31:27;102371.00;;;18.63;48.07
72285;BME280;60220;53.552;10.092;2023-05-25T07:33:55;102368.47;;;18.11;48.65
72285;BME280;60220;53.552;10.092;2023-05-25T07:36:22;102377.31;;;18.13;49.10
72285;BME280;60220;53.552;10.092;2023-05-25T07:38:52;102375.41;;;19.07;46.93
72285;BME280;60220;53.552;10.092;2023-05-25T07:41:18;102378.97;;;19.46;45.62
72285;BME280;60220;53.552;10.092;2023-05-25T07:43:45;102379.28;;;19.32;45.94
72285;BME280;60220;53.552;10.092;2023-05-25T07:46:12;102380.44;;;18.33;48.84
72285;BME280;60220;53.552;10.092;2023-05-25T07:48:39;102377.00;;;18.28;47.55
72285;BME280;60220;53.552;10.092;2023-05-25T07:51:07;102380.56;;;18.73;47.31
72285;BME280;60220;53.552;10.092;2023-05-25T07:53:34;102393.84;;;18.75;47.33
72285;BME280;60220;53.552;10.092;2023-05-25T07:56:01;102399.66;;;17.45;50.37
72285;BME280;60220;53.552;10.092;2023-05-25T07:58:28;102407.31;;;18.18;47.95
72285;BME280;60220;53.552;10.092;2023-05-25T08:00:54;102404.06;;;17.46;49.25
72285;BME280;60220;53.552;10.092;2023-05-25T08:03:21;102403.38;;;17.33;49.83
72285;BME280;60220;53.552;10.092;2023-05-25T08:05:48;102403.25;;;17.42;49.14
72285;BME280;60220;53.552;10.092;2023-05-25T08:08:17;102399.41;;;19.06;46.77
72285;BME280;60220;53.552;10.092;2023-05-25T08:10:46;102397.28;;;18.34;47.24
72285;BME280;60220;53.552;10.092;2023-05-25T08:13:13;102400.31;;;18.14;47.57
72285;BME280;60220;53.552;10.092;2023-05-25T08:15:39;102400.47;;;18.53;47.89
72285;BME280;60220;53.552;10.092;2023-05-25T08:18:06;102414.22;;;18.76;45.00
72285;BME280;60220;53.552;10.092;2023-05-25T08:20:33;102400.16;;;19.12;45.84
72285;BME280;60220;53.552;10.092;2023-05-25T08:23:02;102398.09;;;19.23;45.28
72285;BME280;60220;53.552;10.092;2023-05-25T08:25:30;102405.44;;;18.23;45.80
72285;BME280;60220;53.552;10.092;2023-05-25T08:27:58;102403.91;;;18.59;46.61
72285;BME280;60220;53.552;10.092;2023-05-25T08:30:25;102409.50;;;18.90;45.71
72285;BME280;60220;53.552;10.092;2023-05-25T08:32:51;102407.59;;;18.95;44.45
72285;BME280;60220;53.552;10.092;2023-05-25T08:35:18;102397.75;;;18.99;44.44
72285;BME280;60220;53.552;10.092;2023-05-25T08:37:47;102400.53;;;18.49;45.43
72285;BME280;60220;53.552;10.092;2023-05-25T08:40:17;102409.25;;;19.02;44.53
72285;BME280;60220;53.552;10.092;2023-05-25T08:42:47;102405.47;;;19.12;42.09
72285;BME280;60220;53.552;10.092;2023-05-25T08:45:14;102408.41;;;19.39;43.84
72285;BME280;60220;53.552;10.092;2023-05-25T08:47:42;102409.59;;;20.01;42.97
72285;BME280;60220;53.552;10.092;2023-05-25T08:50:10;102402.84;;;19.11;42.88
72285;BME280;60220;53.552;10.092;2023-05-25T08:52:39;102411.13;;;19.74;44.54
72285;BME280;60220;53.552;10.092;2023-05-25T08:55:08;102405.91;;;19.71;41.92
72285;BME280;60220;53.552;10.092;2023-05-25T08:57:44;102413.13;;;18.86;40.26
72285;BME280;60220;53.552;10.092;2023-05-25T09:00:21;102423.03;;;19.19;41.89
72285;BME280;60220;53.552;10.092;2023-05-25T09:02:58;102419.84;;;19.82;39.61
72285;BME280;60220;53.552;10.092;2023-05-25T09:05:25;102420.13;;;20.05;40.39
72285;BME280;60220;53.552;10.092;2023-05-25T09:07:55;102424.84;;;19.94;39.88
72285;BME280;60220;53.552;10.092;2023-05-25T09:10:25;102437.38;;;20.25;41.32
72285;BME280;60220;53.552;10.092;2023-05-25T09:12:53;102442.31;;;20.07;40.72
72285;BME280;60220;53.552;10.092;2023-05-25T09:15:22;102433.66;;;20.96;38.85
72285;BME280;60220;53.552;10.092;2023-05-25T09:17:49;102435.03;;;20.12;39.61
72285;BME280;60220;53.552;10.092;2023-05-25T09:20:17;102434.09;;;20.49;38.54
72285;BME280;60220;53.552;10.092;2023-05-25T09:22:46;102428.88;;;19.75;41.67
72285;BME280;60220;53.552;10.092;2023-05-25T09:25:16;102436.03;;;20.42;40.87
72285;BME280;60220;53.552;10.092;2023-05-25T09:27:45;102434.44;;;19.66;40.94
72285;BME280;60220;53.552;10.092;2023-05-25T09:30:11;102440.03;;;17.70;44.26
72285;BME280;60220;53.552;10.092;2023-05-25T09:32:42;102443.25;;;18.40;44.25
72285;BME280;60220;53.552;10.092;2023-05-25T09:35:10;102435.59;;;18.71;44.24
72285;BME280;60220;53.552;10.092;2023-05-25T09:37:37;102436.28;;;18.81;43.16
72285;BME280;60220;53.552;10.092;2023-05-25T09:40:05;102435.78;;;19.05;41.53
72285;BME280;60220;53.552;10.092;2023-05-25T09:42:33;102435.19;;;18.91;43.52
72285;BME280;60220;53.552;10.092;2023-05-25T09:45:01;102427.78;;;19.05;42.41
72285;BME280;60220;53.552;10.092;2023-05-25T09:47:28;102446.69;;;18.45;44.55
72285;BME280;60220;53.552;10.092;2023-05-25T09:49:57;102435.47;;;18.30;43.64
72285;BME280;60220;53.552;10.092;2023-05-25T09:52:24;102440.88;;;18.25;45.78
72285;BME280;60220;53.552;10.092;2023-05-25T09:54:51;102442.13;;;18.54;45.00
72285;BME280;60220;53.552;10.092;2023-05-25T09:57:19;102437.25;;;18.29;44.83
72285;BME280;60220;53.552;10.092;2023-05-25T09:59:46;102438.16;;;17.75;45.33
72285;BME280;60220;53.552;10.092;2023-05-25T10:02:15;102429.50;;;18.17;45.54
72285;BME280;60220;53.552;10.092;2023-05-25T10:04:42;102429.59;;;18.62;47.01
72285;BME280;60220;53.552;10.092;2023-05-25T10:07:12;102449.00;;;18.67;45.26
72285;BME280;60220;53.552;10.092;2023-05-25T10:09:44;102439.78;;;18.83;43.67
72285;BME280;60220;53.552;10.092;2023-05-25T10:12:15;102430.69;;;18.93;44.28
72285;BME280;60220;53.552;10.092;2023-05-25T10:14:43;102429.69;;;19.39;43.77
72285;BME280;60220;53.552;10.092;2023-05-25T10:17:12;102434.34;;;18.89;45.18
72285;BME280;60220;53.552;10.092;2023-05-25T10:19:45;102435.91;;;18.99;44.05
72285;BME280;60220;53.552;10.092;2023-05-25T10:22:18;102440.34;;;18.99;44.46
72285;BME280;60220;53.552;10.092;2023-05-25T10:24:52;102438.94;;;18.33;44.01
72285;BME280;60220;53.552;10.092;2023-05-25T10:27:22;102443.41;;;19.22;43.58
72285;BME280;60220;53.552;10.092;2023-05-25T10:29:50;102437.47;;;18.66;42.75
72285;BME280;60220;53.552;10.092;2023-05-25T10:32:19;102445.16;;;18.80;45.11
72285;BME280;60220;53.552;10.092;2023-05-25T10:34:49;102452.19;;;19.25;43.04
72285;BME280;60220;53.552;10.092;2023-05-25T10:37:18;102452.31;;;17.78;44.47
72285;BME280;60220;53.552;10.092;2023-05-25T10:39:52;102449.09;;;18.10;44.69
72285;BME280;60220;53.552;10.092;2023-05-25T10:42:20;102451.66;;;18.67;44.65
72285;BME280;60220;53.552;10.092;2023-05-25T10:44:48;102449.03;;;19.50;45.20
72285;BME280;60220;53.552;10.092;2023-05-25T10:47:15;102452.44;;;19.56;41.69
72285;BME280;60220;53.552;10.092;2023-05-25T10:49:53;102457.59;;;18.32;45.45
72285;BME280;60220;53.552;10.092;2023-05-25T10:52:25;102453.09;;;18.35;44.00
72285;BME280;60220;53.552;10.092;2023-05-25T10:54:55;102446.75;;;17.31;44.79
72285;BME280;60220;53.552;10.092;2023-05-25T10:57:23;102449.66;;;17.77;43.93
72285;BME280;60220;53.552;10.092;2023-05-25T10:59:51;102450.69;;;18.71;44.37
72285;BME280;60220;53.552;10.092;2023-05-25T11:02:20;102441.50;;;18.39;42.55
72285;BME280;60220;53.552;10.092;2023-05-25T11:08:04;102438.63;;;18.96;42.18
72285;BME280;60220;53.552;10.092;2023-05-25T11:10:52;102444.34;;;19.19;42.91
72285;BME280;60220;53.552;10.092;2023-05-25T11:13:35;102442.84;;;19.48;42.84
72285;BME280;60220;53.552;10.092;2023-05-25T11:16:13;102438.53;;;19.42;42.34
72285;BME280;60220;53.552;10.092;2023-05-25T11:18:42;102446.53;;;18.99;42.09
72285;BME280;60220;53.552;10.092;2023-05-25T11:21:11;102432.00;;;18.26;44.78
72285;BME280;60220;53.552;10.092;2023-05-25T11:23:51;102441.03;;;19.50;42.61
72285;BME280;60220;53.552;10.092;2023-05-25T11:26:19;102430.56;;;18.99;41.62
72285;BME280;60220;53.552;10.092;2023-05-25T11:28:48;102430.22;;;18.25;43.92
72285;BME280;60220;53.552;10.092;2023-05-25T11:31:23;102430.91;;;18.84;45.22
72285;BME280;60220;53.552;10.092;2023-05-25T11:33:55;102432.41;;;18.53;43.66
72285;BME280;60220;53.552;10.092;2023-05-25T11:36:24;102422.91;;;18.84;43.44
72285;BME280;60220;53.552;10.092;2023-05-25T11:38:52;102428.44;;;19.16;42.72
72285;BME280;60220;53.552;10.092;2023-05-25T11:41:19;102419.72;;;19.08;43.56
72285;BME280;60220;53.552;10.092;2023-05-25T11:43:47;102420.63;;;18.66;43.35
72285;BME280;60220;53.552;10.092;2023-05-25T11:46:15;102426.41;;;18.41;45.04
72285;BME280;60220;53.552;10.092;2023-05-25T11:48:45;102428.50;;;19.13;41.79
72285;BME280;60220;53.552;10.092;2023-05-25T11:51:12;102425.56;;;18.84;43.59
72285;BME280;60220;53.552;10.092;2023-05-25T11:53:42;102438.00;;;19.65;44.03
72285;BME280;60220;53.552;10.092;2023-05-25T11:56:11;102427.97;;;19.38;42.54
72285;BME280;60220;53.552;10.092;2023-05-25T11:58:41;102419.72;;;19.08;44.56
72285;BME280;60220;53.552;10.092;2023-05-25T12:01:13;102421.78;;;19.35;43.00
72285;BME280;60220;53.552;10.092;2023-05-25T12:03:39;102419.53;;;18.77;44.85
72285;BME280;60220;53.552;10.092;2023-05-25T12:06:06;102412.00;;;18.98;44.22
72285;BME280;60220;53.552;10.092;2023-05-25T12:08:33;102412.00;;;18.98;44.35
72285;BME280;60220;53.552;10.092;2023-05-25T12:11:00;102417.16;;;19.05;44.76
72285;BME280;60220;53.552;10.092;2023-05-25T12:13:28;102409.72;;;19.19;43.82
72285;BME280;60220;53.552;10.092;2023-05-25T12:15:56;102413.56;;;18.65;43.81
72285;BME280;60220;53.552;10.092;2023-05-25T12:18:26;102416.25;;;19.06;43.10
72285;BME280;60220;53.552;10.092;2023-05-25T12:20:57;102413.25;;;19.97;41.09
72285;BME280;60220;53.552;10.092;2023-05-25T12:23:24;102418.59;;;19.20;42.22
72285;BME280;60220;53.552;10.092;2023-05-25T12:26:05;102408.41;;;18.99;42.01
72285;BME280;60220;53.552;10.092;2023-05-25T12:28:33;102416.13;;;19.12;42.63
72285;BME280;60220;53.552;10.092;2023-05-25T12:31:21;102397.66;;;18.62;44.65
72285;BME280;60220;53.552;10.092;2023-05-25T12:34:04;102407.25;;;19.12;43.86
72285;BME280;60220;53.552;10.092;2023-05-25T12:36:42;102406.19;;;19.19;43.70
72285;BME280;60220;53.552;10.092;2023-05-25T12:39:09;102398.69;;;19.38;41.04
72285;BME280;60220;53.552;10.092;2023-05-25T12:41:44;102400.09;;;19.89;41.10
72285;BME280;60220;53.552;10.092;2023-05-25T12:44:26;102407.44;;;20.15;41.29
72285;BME280;60220;53.552;10.092;2023-05-25T12:47:09;102409.47;;;19.70;42.72
72285;BME280;60220;53.552;10.092;2023-05-25T12:49:37;102407.16;;;19.55;42.19
72285;BME280;60220;53.552;10.092;2023-05-25T12:52:04;102403.28;;;20.03;42.25